createdAt,value
2019-02-25T00:00:27.910Z,-4.9
2019-02-25T00:01:27.912Z,-5.1
2019-02-25T00:02:27.954Z,-5.1
2019-02-25T00:03:30.206Z,-5.2
2019-02-25T00:04:27.962Z,-5.1
2019-02-25T00:05:27.943Z,-5.1
2019-02-25T00:06:27.973Z,-5
2019-02-25T00:07:27.975Z,-5
2019-02-25T00:08:27.988Z,-5
2019-02-25T00:09:27.994Z,-5.1
2019-02-25T00:10:28.041Z,-5.1
2019-02-25T00:11:28.107Z,-5.1
2019-02-25T00:12:28.185Z,-5.1
2019-02-25T00:13:28.217Z,-5.1
2019-02-25T00:14:28.285Z,-5.2
2019-02-25T00:15:28.300Z,-5.2
2019-02-25T00:16:28.306Z,-5.2
2019-02-25T00:17:28.327Z,-5.2
2019-02-25T00:18:28.420Z,-5.1
2019-02-25T00:19:28.485Z,-5.1
2019-02-25T00:20:28.496Z,-5.1
2019-02-25T00:21:28.512Z,-5.2
2019-02-25T00:22:28.586Z,-5.3
2019-02-25T00:23:28.650Z,-5.3
2019-02-25T00:24:28.742Z,-5.2
2019-02-25T00:25:28.795Z,-5.1
2019-02-25T00:26:28.805Z,-5.1
2019-02-25T00:27:28.843Z,-5.2
2019-02-25T00:28:29.394Z,-5.2
2019-02-25T00:29:29.009Z,-5.1
2019-02-25T00:30:29.020Z,-5.2
2019-02-25T00:31:29.065Z,-5.1
2019-02-25T00:32:29.077Z,-5.2
2019-02-25T00:33:29.139Z,-5.2
2019-02-25T00:34:29.242Z,-5.2
2019-02-25T00:35:29.247Z,-5
2019-02-25T00:36:29.286Z,-4.9
2019-02-25T00:37:29.350Z,-4.9
2019-02-25T00:38:29.365Z,-4.9
2019-02-25T00:39:29.438Z,-4.9
2019-02-25T00:40:29.507Z,-4.9
2019-02-25T00:41:29.606Z,-4.9
2019-02-25T00:42:29.611Z,-4.9
2019-02-25T00:43:29.614Z,-5
2019-02-25T00:44:29.661Z,-4.9
2019-02-25T00:45:29.703Z,-4.9
2019-02-25T00:46:29.754Z,-4.9
2019-02-25T00:48:29.814Z,-4.9
2019-02-25T00:48:34.875Z,-5
2019-02-25T00:49:29.866Z,-5
2019-02-25T00:50:29.896Z,-5
2019-02-25T00:51:29.954Z,-5
2019-02-25T00:52:30.011Z,-5
2019-02-25T00:53:30.038Z,-5
2019-02-25T00:54:30.082Z,-5
2019-02-25T00:55:30.108Z,-5.1
2019-02-25T00:56:30.134Z,-5.2
2019-02-25T00:57:30.187Z,-5.2
2019-02-25T00:58:30.209Z,-5.3
2019-02-25T00:59:30.251Z,-5.2
2019-02-25T01:00:30.272Z,-5.1
2019-02-25T01:01:30.277Z,-5.2
2019-02-25T01:02:30.306Z,-5.3
2019-02-25T01:03:30.342Z,-5.2
2019-02-25T01:04:30.373Z,-5
2019-02-25T01:05:30.373Z,-5
2019-02-25T01:06:30.408Z,-5.1
2019-02-25T01:07:30.454Z,-5
2019-02-25T01:08:30.468Z,-5
2019-02-25T01:09:30.532Z,-5.1
2019-02-25T01:10:31.390Z,-5
2019-02-25T01:11:30.581Z,-5.1
2019-02-25T01:12:30.624Z,-5.1
2019-02-25T01:13:30.653Z,-5.1
2019-02-25T01:14:30.655Z,-5.1
2019-02-25T01:15:30.688Z,-5.1
2019-02-25T01:16:30.732Z,-5
2019-02-25T01:17:30.742Z,-5
2019-02-25T01:18:30.778Z,-5.1
2019-02-25T01:19:30.814Z,-5.1
2019-02-25T01:20:30.817Z,-5.1
2019-02-25T01:21:30.862Z,-5.1
2019-02-25T01:22:30.885Z,-5.2
2019-02-25T01:23:30.881Z,-5.2
2019-02-25T01:24:30.914Z,-5.1
2019-02-25T01:25:30.966Z,-5.2
2019-02-25T01:26:30.941Z,-5.1
2019-02-25T01:27:30.985Z,-5.1
2019-02-25T01:28:30.988Z,-5.1
2019-02-25T01:29:31.045Z,-5.1
2019-02-25T01:30:31.031Z,-5.1
2019-02-25T01:31:31.026Z,-5.1
2019-02-25T01:32:31.074Z,-5.2
2019-02-25T01:33:31.077Z,-5.2
2019-02-25T01:34:31.125Z,-5.2
2019-02-25T01:35:31.092Z,-5.1
2019-02-25T01:36:31.137Z,-5.1
2019-02-25T01:37:31.116Z,-5.1
2019-02-25T01:38:31.175Z,-5.1
2019-02-25T01:39:31.161Z,-5.1
2019-02-25T01:40:31.146Z,-4.9
2019-02-25T01:41:31.159Z,-5.3
2019-02-25T01:42:31.158Z,-5.2
2019-02-25T01:43:31.175Z,-5.4
2019-02-25T01:44:31.182Z,-5.2
2019-02-25T01:45:31.189Z,-5.2
2019-02-25T01:46:31.206Z,-5.2
2019-02-25T01:47:31.215Z,-5.2
2019-02-25T01:48:31.298Z,-5.2
2019-02-25T01:49:31.347Z,-5.2
2019-02-25T01:50:31.388Z,-5.3
2019-02-25T01:51:31.521Z,-5.3
2019-02-25T01:52:31.478Z,-5.3
2019-02-25T01:53:31.498Z,-5.2
2019-02-25T01:54:31.553Z,-5.3
2019-02-25T01:55:31.618Z,-5.3
2019-02-25T01:56:31.640Z,-5.3
2019-02-25T01:57:31.699Z,-5.3
2019-02-25T01:58:31.733Z,-5.4
2019-02-25T01:59:31.807Z,-5.4
2019-02-25T02:00:31.894Z,-5.5
2019-02-25T02:01:31.967Z,-5.4
2019-02-25T02:02:31.985Z,-5.4
2019-02-25T02:03:32.054Z,-5.5
2019-02-25T02:04:32.134Z,-5.4
2019-02-25T02:05:32.132Z,-5.4
2019-02-25T02:06:32.120Z,-5.4
2019-02-25T02:07:32.155Z,-5.5
2019-02-25T02:08:32.248Z,-5.5
2019-02-25T02:09:32.319Z,-5.5
2019-02-25T02:10:32.326Z,-5.5
2019-02-25T02:11:32.364Z,-5.4
2019-02-25T02:12:32.438Z,-5.4
2019-02-25T02:13:32.516Z,-5.4
2019-02-25T02:14:32.573Z,-5.5
2019-02-25T02:15:32.601Z,-5.4
2019-02-25T02:16:32.715Z,-5.5
2019-02-25T02:17:32.686Z,-5.6
2019-02-25T02:18:32.758Z,-5.7
2019-02-25T02:19:32.804Z,-5.8
2019-02-25T02:20:32.797Z,-5.8
2019-02-25T02:21:32.866Z,-5.7
2019-02-25T02:22:32.861Z,-5.4
2019-02-25T02:23:32.930Z,-5.6
2019-02-25T02:24:32.951Z,-5.7
2019-02-25T02:25:33.014Z,-5.7
2019-02-25T02:26:33.075Z,-5.7
2019-02-25T02:27:33.117Z,-5.7
2019-02-25T02:28:33.139Z,-5.6
2019-02-25T02:29:33.160Z,-5.6
2019-02-25T02:30:33.231Z,-5.7
2019-02-25T02:31:33.270Z,-5.7
2019-02-25T02:32:33.395Z,-5.6
2019-02-25T02:33:33.351Z,-5.6
2019-02-25T02:34:33.385Z,-5.6
2019-02-25T02:35:33.441Z,-5.6
2019-02-25T02:36:33.441Z,-5.7
2019-02-25T02:37:33.483Z,-5.7
2019-02-25T02:38:33.513Z,-5.6
2019-02-25T02:39:33.542Z,-5.7
2019-02-25T02:40:33.596Z,-5.8
2019-02-25T02:41:33.614Z,-5.8
2019-02-25T02:42:33.626Z,-5.9
2019-02-25T02:43:34.768Z,-5.8
2019-02-25T02:44:33.704Z,-5.8
2019-02-25T02:45:33.723Z,-5.7
2019-02-25T02:46:33.784Z,-5.8
2019-02-25T02:47:33.818Z,-5.9
2019-02-25T02:48:33.891Z,-5.8
2019-02-25T02:49:33.857Z,-5.7
2019-02-25T02:50:33.922Z,-5.8
2019-02-25T02:51:33.918Z,-5.9
2019-02-25T02:52:33.963Z,-5.9
2019-02-25T02:53:33.955Z,-5.9
2019-02-25T02:54:33.977Z,-5.9
2019-02-25T02:55:33.996Z,-6
2019-02-25T02:56:34.041Z,-5.8
2019-02-25T02:57:34.048Z,-5.7
2019-02-25T02:58:34.075Z,-5.7
2019-02-25T02:59:34.087Z,-5.8
2019-02-25T03:00:34.108Z,-5.7
2019-02-25T03:01:34.135Z,-5.9
2019-02-25T03:02:34.157Z,-5.9
2019-02-25T03:03:34.173Z,-5.8
2019-02-25T03:04:34.219Z,-5.8
2019-02-25T03:05:34.236Z,-5.8
2019-02-25T03:06:34.229Z,-5.8
2019-02-25T03:07:34.262Z,-5.8
2019-02-25T03:08:34.264Z,-5.9
2019-02-25T03:09:34.282Z,-5.9
2019-02-25T03:10:34.289Z,-5.9
2019-02-25T03:11:34.286Z,-5.9
2019-02-25T03:12:34.349Z,-5.9
2019-02-25T03:13:34.332Z,-5.9
2019-02-25T03:14:34.335Z,-5.8
2019-02-25T03:15:34.352Z,-5.8
2019-02-25T03:16:34.343Z,-5.8
2019-02-25T03:17:34.352Z,-5.9
2019-02-25T03:18:34.365Z,-6
2019-02-25T03:19:34.395Z,-6
2019-02-25T03:20:34.383Z,-6.1
2019-02-25T03:21:34.455Z,-6
2019-02-25T03:22:34.413Z,-6
2019-02-25T03:23:34.460Z,-6
2019-02-25T03:24:34.509Z,-6
2019-02-25T03:25:34.566Z,-6
2019-02-25T03:26:34.641Z,-6.2
2019-02-25T03:27:34.729Z,-6.2
2019-02-25T03:28:34.757Z,-6.3
2019-02-25T03:29:34.792Z,-6.2
2019-02-25T03:30:34.864Z,-6.1
2019-02-25T03:31:34.925Z,-6
2019-02-25T03:32:34.983Z,-6.1
2019-02-25T03:33:35.036Z,-6.2
2019-02-25T03:34:35.077Z,-6.2
2019-02-25T03:35:35.555Z,-6.2
2019-02-25T03:36:35.166Z,-6.2
2019-02-25T03:37:36.245Z,-6.1
2019-02-25T03:38:35.258Z,-6.1
2019-02-25T03:39:35.298Z,-6.1
2019-02-25T03:40:35.366Z,-6.1
2019-02-25T03:41:35.447Z,-6.1
2019-02-25T03:42:35.473Z,-6
2019-02-25T03:43:35.523Z,-6
2019-02-25T03:44:35.553Z,-6.1
2019-02-25T03:45:35.649Z,-6.2
2019-02-25T03:46:35.651Z,-6.2
2019-02-25T03:47:35.731Z,-6
2019-02-25T03:48:35.766Z,-6
2019-02-25T03:49:35.921Z,-6.1
2019-02-25T03:50:35.873Z,-6.1
2019-02-25T03:51:36.054Z,-6.1
2019-02-25T03:52:35.979Z,-6.2
2019-02-25T03:53:36.027Z,-6.1
2019-02-25T03:54:36.039Z,-6.1
2019-02-25T03:55:36.072Z,-6.2
2019-02-25T03:56:36.134Z,-6.2
2019-02-25T03:57:36.222Z,-6.2
2019-02-25T03:58:36.222Z,-6.2
2019-02-25T03:59:36.251Z,-6.1
2019-02-25T04:00:36.258Z,-6.1
2019-02-25T04:01:36.281Z,-6.2
2019-02-25T04:02:36.363Z,-6.2
2019-02-25T04:03:36.367Z,-6.3
2019-02-25T04:04:36.385Z,-6.4
2019-02-25T04:05:36.406Z,-6.5
2019-02-25T04:06:36.446Z,-6.4
2019-02-25T04:07:36.467Z,-6.5
2019-02-25T04:08:36.555Z,-6.2
2019-02-25T04:09:36.568Z,-6.2
2019-02-25T04:10:36.615Z,-6.3
2019-02-25T04:11:36.650Z,-6.4
2019-02-25T04:12:36.656Z,-6.2
2019-02-25T04:13:36.739Z,-6.2
2019-02-25T04:14:36.752Z,-6.2
2019-02-25T04:15:36.812Z,-6.1
2019-02-25T04:16:36.951Z,-6.1
2019-02-25T04:17:36.881Z,-6.1
2019-02-25T04:18:36.885Z,-6.1
2019-02-25T04:19:36.945Z,-6.3
2019-02-25T04:20:36.974Z,-6.6
2019-02-25T04:21:36.989Z,-6.4
2019-02-25T04:22:37.042Z,-6.3
2019-02-25T04:23:37.071Z,-6.3
2019-02-25T04:24:37.113Z,-6.3
2019-02-25T04:25:37.144Z,-6.2
2019-02-25T04:26:37.164Z,-6.3
2019-02-25T04:27:37.205Z,-6.2
2019-02-25T04:28:37.198Z,-6.3
2019-02-25T04:29:37.210Z,-6.3
2019-02-25T04:30:37.237Z,-6.3
2019-02-25T04:31:37.271Z,-6.2
2019-02-25T04:32:37.397Z,-6.2
2019-02-25T04:33:37.310Z,-6.3
2019-02-25T04:34:37.339Z,-6.3
2019-02-25T04:35:37.374Z,-6.3
2019-02-25T04:36:37.382Z,-6.4
2019-02-25T04:37:37.407Z,-6.2
2019-02-25T04:38:37.445Z,-6.2
2019-02-25T04:39:37.466Z,-6.1
2019-02-25T04:40:37.483Z,-6.1
2019-02-25T04:41:37.590Z,-6.2
2019-02-25T04:42:37.556Z,-6.1
2019-02-25T04:43:37.555Z,-6.1
2019-02-25T04:44:37.579Z,-6.4
2019-02-25T04:45:37.608Z,-6.3
2019-02-25T04:46:37.642Z,-6.3
2019-02-25T04:47:37.659Z,-6.3
2019-02-25T04:48:37.656Z,-6.3
2019-02-25T04:49:37.690Z,-6.3
2019-02-25T04:50:37.672Z,-6.3
2019-02-25T04:51:40.202Z,-6.3
2019-02-25T04:52:37.704Z,-6.3
2019-02-25T04:53:37.722Z,-6.3
2019-02-25T04:54:37.721Z,-6.4
2019-02-25T04:55:37.743Z,-6.4
2019-02-25T04:56:37.752Z,-6.3
2019-02-25T04:57:37.814Z,-6.2
2019-02-25T04:58:37.797Z,-6.3
2019-02-25T04:59:37.807Z,-6.3
2019-02-25T05:00:37.808Z,-6.3
2019-02-25T05:01:37.822Z,-6.5
2019-02-25T05:02:37.813Z,-6.6
2019-02-25T05:03:37.836Z,-6.4
2019-02-25T05:04:37.824Z,-6.5
2019-02-25T05:05:37.883Z,-6.5
2019-02-25T05:06:37.884Z,-6.4
2019-02-25T05:07:37.932Z,-6.4
2019-02-25T05:08:37.999Z,-6.4
2019-02-25T05:09:38.059Z,-6.3
2019-02-25T05:10:38.142Z,-6.4
2019-02-25T05:11:38.202Z,-6.5
2019-02-25T05:12:38.292Z,-6.6
2019-02-25T05:13:38.304Z,-6.5
2019-02-25T05:14:38.360Z,-6.6
2019-02-25T05:15:38.446Z,-6.7
2019-02-25T05:16:40.008Z,-6.6
2019-02-25T05:17:38.505Z,-6.6
2019-02-25T05:18:38.512Z,-6.5
2019-02-25T05:19:40.862Z,-6.6
2019-02-25T05:20:38.654Z,-6.7
2019-02-25T05:21:38.699Z,-6.8
2019-02-25T05:22:38.767Z,-6.7
2019-02-25T05:23:38.784Z,-6.8
2019-02-25T05:24:38.850Z,-6.8
2019-02-25T05:25:38.968Z,-6.7
2019-02-25T05:26:38.931Z,-6.7
2019-02-25T05:27:39.007Z,-6.6
2019-02-25T05:28:39.063Z,-6.7
2019-02-25T05:29:39.102Z,-6.8
2019-02-25T05:30:39.169Z,-7
2019-02-25T05:31:39.231Z,-6.9
2019-02-25T05:32:39.325Z,-6.8
2019-02-25T05:33:39.332Z,-6.6
2019-02-25T05:34:39.421Z,-6.6
2019-02-25T05:35:39.497Z,-6.6
2019-02-25T05:36:39.534Z,-6.6
2019-02-25T05:37:39.531Z,-6.5
2019-02-25T05:38:39.540Z,-6.5
2019-02-25T05:39:39.612Z,-6.5
2019-02-25T05:40:39.676Z,-6.6
2019-02-25T05:41:39.763Z,-6.7
2019-02-25T05:42:39.795Z,-6.6
2019-02-25T05:43:39.831Z,-6.5
2019-02-25T05:44:39.857Z,-6.4
2019-02-25T05:45:39.910Z,-6.4
2019-02-25T05:46:39.950Z,-6.4
2019-02-25T05:47:39.998Z,-6.6
2019-02-25T05:48:40.026Z,-6.7
2019-02-25T05:49:40.051Z,-6.7
2019-02-25T05:50:40.159Z,-6.7
2019-02-25T05:51:40.159Z,-6.8
2019-02-25T05:52:40.161Z,-7
2019-02-25T05:53:40.209Z,-7
2019-02-25T05:54:40.252Z,-6.8
2019-02-25T05:55:40.289Z,-6.9
2019-02-25T05:56:40.299Z,-6.9
2019-02-25T05:57:40.362Z,-6.9
2019-02-25T05:58:40.417Z,-6.8
2019-02-25T05:59:40.430Z,-6.8
2019-02-25T06:00:40.521Z,-6.8
2019-02-25T06:01:40.544Z,-6.9
2019-02-25T06:02:40.535Z,-6.8
2019-02-25T06:03:40.581Z,-6.7
2019-02-25T06:04:40.630Z,-6.9
2019-02-25T06:05:40.662Z,-6.8
2019-02-25T06:06:40.692Z,-6.9
2019-02-25T06:07:40.721Z,-7.1
2019-02-25T06:08:40.741Z,-7
2019-02-25T06:09:40.753Z,-7
2019-02-25T06:10:40.759Z,-7.1
2019-02-25T06:11:40.795Z,-7
2019-02-25T06:12:40.851Z,-7
2019-02-25T06:13:40.876Z,-6.9
2019-02-25T06:14:40.888Z,-6.8
2019-02-25T06:15:40.926Z,-6.8
2019-02-25T06:16:40.928Z,-6.8
2019-02-25T06:17:40.968Z,-6.7
2019-02-25T06:18:41.013Z,-6.6
2019-02-25T06:19:41.046Z,-6.6
2019-02-25T06:20:41.040Z,-6.7
2019-02-25T06:21:41.058Z,-6.6
2019-02-25T06:22:41.111Z,-6.5
2019-02-25T06:23:41.110Z,-6.5
2019-02-25T06:24:41.117Z,-6.5
2019-02-25T06:25:41.149Z,-6.7
2019-02-25T06:26:41.225Z,-6.6
2019-02-25T06:27:41.216Z,-6.4
2019-02-25T06:28:41.252Z,-6.3
2019-02-25T06:29:41.267Z,-6.3
2019-02-25T06:30:41.338Z,-6.4
2019-02-25T06:31:41.328Z,-6.4
2019-02-25T06:32:41.357Z,-6.4
2019-02-25T06:33:41.403Z,-6.5
2019-02-25T06:34:41.363Z,-6.5
2019-02-25T06:35:41.414Z,-6.6
2019-02-25T06:36:41.418Z,-6.6
2019-02-25T06:37:41.460Z,-6.6
2019-02-25T06:38:41.469Z,-6.7
2019-02-25T06:39:41.478Z,-6.7
2019-02-25T06:40:41.494Z,-6.5
2019-02-25T06:41:41.516Z,-6.4
2019-02-25T06:42:41.526Z,-6.3
2019-02-25T06:43:41.543Z,-6.3
2019-02-25T06:44:41.581Z,-6.2
2019-02-25T06:45:41.599Z,-6.2
2019-02-25T06:46:41.588Z,-6.3
2019-02-25T06:47:41.592Z,-6.4
2019-02-25T06:48:42.077Z,-6.4
2019-02-25T06:49:41.595Z,-6.5
2019-02-25T06:50:41.611Z,-6.3
2019-02-25T06:51:41.646Z,-6.2
2019-02-25T06:52:41.748Z,-6.2
2019-02-25T06:53:41.665Z,-6.2
2019-02-25T06:54:41.675Z,-6.2
2019-02-25T06:55:41.649Z,-6.1
2019-02-25T06:56:41.660Z,-6.1
2019-02-25T06:57:41.659Z,-6
2019-02-25T06:58:41.683Z,-6.1
2019-02-25T06:59:41.718Z,-6.1
2019-02-25T07:00:41.790Z,-6.1
2019-02-25T07:01:41.820Z,-6
2019-02-25T07:02:41.896Z,-6.1
2019-02-25T07:03:43.560Z,-6.2
2019-02-25T07:04:41.961Z,-6.2
2019-02-25T07:05:42.057Z,-6.2
2019-02-25T07:06:42.128Z,-6.1
2019-02-25T07:07:42.143Z,-5.9
2019-02-25T07:08:42.196Z,-5.8
2019-02-25T07:09:42.243Z,-5.8
2019-02-25T07:10:42.389Z,-5.7
2019-02-25T07:11:42.299Z,-5.9
2019-02-25T07:12:42.369Z,-6.2
2019-02-25T07:13:42.382Z,-5.9
2019-02-25T07:14:42.390Z,-5.7
2019-02-25T07:15:42.397Z,-5.6
2019-02-25T07:16:42.462Z,-5.6
2019-02-25T07:17:42.476Z,-5.6
2019-02-25T07:18:42.542Z,-5.4
2019-02-25T07:19:42.584Z,-5.4
2019-02-25T07:20:42.796Z,-5.3
2019-02-25T07:21:42.686Z,-5.2
2019-02-25T07:22:42.714Z,-5
2019-02-25T07:23:42.805Z,-5
2019-02-25T07:24:42.765Z,-5.2
2019-02-25T07:25:42.813Z,-5.2
2019-02-25T07:26:42.839Z,-5.4
2019-02-25T07:27:42.869Z,-5.6
2019-02-25T07:28:42.933Z,-5.5
2019-02-25T07:29:43.002Z,-5.4
2019-02-25T07:30:43.031Z,-5.1
2019-02-25T07:31:43.062Z,-5.2
2019-02-25T07:32:43.100Z,-5.2
2019-02-25T07:33:43.173Z,-5
2019-02-25T07:34:43.137Z,-5.2
2019-02-25T07:35:43.142Z,-5.1
2019-02-25T07:36:43.186Z,-4.9
2019-02-25T07:37:43.251Z,-4.9
2019-02-25T07:38:43.233Z,-4.8
2019-02-25T07:39:43.244Z,-4.6
2019-02-25T07:40:43.299Z,-4.6
2019-02-25T07:41:43.380Z,-5.2
2019-02-25T07:42:43.390Z,-4.9
2019-02-25T07:43:45.702Z,-4.9
2019-02-25T07:44:43.485Z,-5.1
2019-02-25T07:45:43.550Z,-5
2019-02-25T07:46:43.593Z,-5
2019-02-25T07:47:43.593Z,-4.8
2019-02-25T07:48:43.632Z,-4.8
2019-02-25T07:49:43.674Z,-4.5
2019-02-25T07:50:47.080Z,-4.4
2019-02-25T07:51:43.778Z,-4.9
2019-02-25T07:52:43.782Z,-5
2019-02-25T07:53:43.798Z,-5.3
2019-02-25T07:54:43.862Z,-5
2019-02-25T07:55:43.887Z,-4.6
2019-02-25T07:56:43.989Z,-4.8
2019-02-25T07:57:43.933Z,-4.1
2019-02-25T07:58:43.955Z,-4.5
2019-02-25T07:59:44.038Z,-4.7
2019-02-25T08:00:44.079Z,-4.6
2019-02-25T08:01:44.064Z,-4.6
2019-02-25T08:03:16.167Z,-4.7
2019-02-25T08:03:44.148Z,-4.5
2019-02-25T08:04:44.170Z,-4.2
2019-02-25T08:05:44.198Z,-5.1
2019-02-25T08:06:44.239Z,-5.4
2019-02-25T08:07:44.278Z,-5.1
2019-02-25T08:08:44.278Z,-5
2019-02-25T08:09:44.266Z,-5
2019-02-25T08:10:44.306Z,-5.1
2019-02-25T08:11:44.354Z,-5.2
2019-02-25T08:12:44.355Z,-5.6
2019-02-25T08:13:45.393Z,-5.5
2019-02-25T08:14:44.395Z,-4.9
2019-02-25T08:15:44.403Z,-5
2019-02-25T08:16:44.429Z,-5.5
2019-02-25T08:17:44.464Z,-4.6
2019-02-25T08:18:44.462Z,-4.4
2019-02-25T08:19:44.529Z,-4.9
2019-02-25T08:20:44.531Z,-4.8
2019-02-25T08:21:44.542Z,-4.7
2019-02-25T08:22:44.577Z,-5.2
2019-02-25T08:23:44.561Z,-5
2019-02-25T08:24:44.617Z,-5.2
2019-02-25T08:25:44.571Z,-5.4
2019-02-25T08:26:44.603Z,-4.9
2019-02-25T08:27:44.607Z,-4.7
2019-02-25T08:28:44.616Z,-4.6
2019-02-25T08:29:44.640Z,-4.7
2019-02-25T08:30:44.645Z,-4.2
2019-02-25T08:31:44.648Z,-4.3
2019-02-25T08:32:44.666Z,-4.5
2019-02-25T08:33:44.679Z,-4.7
2019-02-25T08:34:44.685Z,-4.6
2019-02-25T08:35:44.684Z,-4.7
2019-02-25T08:36:44.675Z,-4.1
2019-02-25T08:37:44.747Z,-4.2
2019-02-25T08:38:44.843Z,-4.6
2019-02-25T08:39:44.866Z,-4.7
2019-02-25T08:40:44.922Z,-4.7
2019-02-25T08:41:44.993Z,-5.1
2019-02-25T08:42:45.051Z,-5.1
2019-02-25T08:43:45.078Z,-5.6
2019-02-25T08:44:45.138Z,-5.3
2019-02-25T08:45:45.157Z,-5.5
2019-02-25T08:46:45.203Z,-6.3
2019-02-25T08:47:45.280Z,-6.4
2019-02-25T08:48:45.345Z,-6.6
2019-02-25T08:49:45.419Z,-6.6
2019-02-25T08:50:45.474Z,-6.6
2019-02-25T08:51:45.525Z,-6.5
2019-02-25T08:52:45.612Z,-6.4
2019-02-25T08:53:45.656Z,-6.1
2019-02-25T08:54:45.735Z,-6.7
2019-02-25T08:55:45.818Z,-6.8
2019-02-25T08:56:45.811Z,-6.7
2019-02-25T08:57:45.846Z,-6.8
2019-02-25T08:58:45.866Z,-6.8
2019-02-25T08:59:45.909Z,-5.5
2019-02-25T09:00:45.977Z,-7.1
2019-02-25T09:01:46.035Z,-6.4
2019-02-25T09:02:46.049Z,-7.2
2019-02-25T09:03:46.103Z,-6.4
2019-02-25T09:04:46.109Z,-6
2019-02-25T09:05:46.175Z,-6.5
2019-02-25T09:06:46.233Z,-6.6
2019-02-25T09:07:46.294Z,-6.6
2019-02-25T09:08:46.360Z,-6.7
2019-02-25T09:09:46.414Z,-6.1
2019-02-25T09:10:46.441Z,-5.5
2019-02-25T09:11:46.480Z,-5.9
2019-02-25T09:12:46.503Z,-6.5
2019-02-25T09:13:46.492Z,-6.3
2019-02-25T09:14:46.505Z,-5.9
2019-02-25T09:15:46.600Z,-5.9
2019-02-25T09:16:46.600Z,-6.5
2019-02-25T09:17:46.677Z,-5.6
2019-02-25T09:18:46.732Z,-5.9
2019-02-25T09:19:46.761Z,-5.7
2019-02-25T09:20:46.814Z,-5.3
2019-02-25T09:21:46.818Z,-5.4
2019-02-25T09:22:46.894Z,-6.3
2019-02-25T09:23:46.869Z,-5.4
2019-02-25T09:24:46.930Z,-5.7
2019-02-25T09:25:47.011Z,-5
2019-02-25T09:26:47.008Z,-5.5
2019-02-25T09:27:47.084Z,-5.8
2019-02-25T09:28:47.119Z,-6.4
2019-02-25T09:29:47.163Z,-6.7
2019-02-25T09:30:47.242Z,-6.3
2019-02-25T09:31:47.229Z,-5.1
2019-02-25T09:32:47.305Z,-6.8
2019-02-25T09:33:47.348Z,-6.6
2019-02-25T09:34:47.371Z,-7.7
2019-02-25T09:35:47.389Z,-7.4
2019-02-25T09:36:47.410Z,-7.1
2019-02-25T09:37:47.411Z,-7.3
2019-02-25T09:38:47.443Z,-6.9
2019-02-25T09:39:47.499Z,-6.5
2019-02-25T09:40:47.518Z,-6.1
2019-02-25T09:41:47.565Z,-6
2019-02-25T09:42:47.571Z,-7
2019-02-25T09:43:47.599Z,-6.7
2019-02-25T09:44:47.663Z,-6.6
2019-02-25T09:45:47.675Z,-7
2019-02-25T09:46:47.682Z,-7.2
2019-02-25T09:47:47.695Z,-7.4
2019-02-25T09:48:47.731Z,-6.7
2019-02-25T09:49:47.739Z,-6.8
2019-02-25T09:50:47.756Z,-7.1
2019-02-25T09:51:47.751Z,-7.3
2019-02-25T09:52:47.780Z,-7.4
2019-02-25T09:53:47.787Z,-7
2019-02-25T09:54:50.329Z,-7.1
2019-02-25T09:55:47.839Z,-6.5
2019-02-25T09:56:47.860Z,-6.1
2019-02-25T09:57:47.870Z,-6.2
2019-02-25T09:58:47.892Z,-6.6
2019-02-25T09:59:47.942Z,-6.8
2019-02-25T10:00:48.388Z,-6.4
2019-02-25T10:01:47.948Z,-7.1
2019-02-25T10:02:47.963Z,-6.8
2019-02-25T10:03:47.973Z,-6.6
2019-02-25T10:04:47.974Z,-6.6
2019-02-25T10:05:47.987Z,-6.3
2019-02-25T10:06:48.004Z,-6
2019-02-25T10:07:48.009Z,-6.8
2019-02-25T10:08:48.000Z,-7.2
2019-02-25T10:09:48.007Z,-7.1
2019-02-25T10:10:48.033Z,-7.7
2019-02-25T10:11:48.729Z,-8.2
2019-02-25T10:12:48.031Z,-8
2019-02-25T10:13:48.074Z,-7.9
2019-02-25T10:14:49.482Z,-7.8
2019-02-25T10:15:48.045Z,-7.7
2019-02-25T10:16:48.289Z,-7.2
2019-02-25T10:17:48.200Z,-7.4
2019-02-25T10:18:48.276Z,-7.9
2019-02-25T10:19:48.349Z,-7.5
2019-02-25T10:20:48.380Z,-7.5
2019-02-25T10:21:48.404Z,-7.4
2019-02-25T10:22:48.428Z,-6
2019-02-25T10:23:48.475Z,-6.8
2019-02-25T10:24:48.495Z,-6.6
2019-02-25T10:25:48.563Z,-7.2
2019-02-25T10:26:48.617Z,-7.1
2019-02-25T10:27:49.568Z,-7.3
2019-02-25T10:28:48.653Z,-7.8
2019-02-25T10:29:48.748Z,-7.6
2019-02-25T10:30:52.698Z,-7.9
2019-02-25T10:31:48.853Z,-7.2
2019-02-25T10:32:48.971Z,-6.4
2019-02-25T10:33:50.632Z,-7.2
2019-02-25T10:34:48.946Z,-7.4
2019-02-25T10:35:49.053Z,-7.8
2019-02-25T10:36:50.279Z,-7.8
2019-02-25T10:37:49.141Z,-7.4
2019-02-25T10:38:49.141Z,-7.5
2019-02-25T10:39:49.528Z,-7.3
2019-02-25T10:40:49.956Z,-7.6
2019-02-25T10:41:51.002Z,-6.7
2019-02-25T10:42:49.335Z,-6.6
2019-02-25T10:43:49.972Z,-6.8
2019-02-25T10:44:49.452Z,-7.4
2019-02-25T10:45:49.488Z,-6.7
2019-02-25T10:46:49.588Z,-6.7
2019-02-25T10:47:51.223Z,-6.6
2019-02-25T10:48:51.908Z,-6.7
2019-02-25T10:49:49.620Z,-6.8
2019-02-25T10:50:55.696Z,-6.4
2019-02-25T10:51:49.718Z,-6
2019-02-25T10:52:49.736Z,-6.9
2019-02-25T10:53:51.473Z,-6.3
2019-02-25T10:54:51.544Z,-6.9
2019-02-25T10:55:50.860Z,-6.2
2019-02-25T10:56:51.570Z,-6.8
2019-02-25T10:57:49.991Z,-6.7
2019-02-25T10:58:50.049Z,-6.3
2019-02-25T10:59:50.081Z,-6.1
2019-02-25T11:00:50.113Z,-7
2019-02-25T11:01:50.141Z,-7.8
2019-02-25T11:02:51.159Z,-7.5
2019-02-25T11:03:51.945Z,-7.4
2019-02-25T11:04:51.404Z,-7.4
2019-02-25T11:05:51.683Z,-7.5
2019-02-25T11:06:50.351Z,-7.3
2019-02-25T11:07:50.385Z,-7.1
2019-02-25T11:08:50.437Z,-7.6
2019-02-25T11:09:50.490Z,-7.5
2019-02-25T11:10:51.122Z,-7.4
2019-02-25T11:11:50.954Z,-7.6
2019-02-25T11:12:50.523Z,-8.1
2019-02-25T11:13:50.569Z,-7.7
2019-02-25T11:14:50.723Z,-8.1
2019-02-25T11:15:50.597Z,-8.3
2019-02-25T11:16:52.185Z,-7.9
2019-02-25T11:17:51.744Z,-7.1
2019-02-25T11:18:52.682Z,-7
2019-02-25T11:19:50.749Z,-8
2019-02-25T11:20:50.777Z,-7.2
2019-02-25T11:21:50.799Z,-7.3
2019-02-25T11:22:50.807Z,-7.4
2019-02-25T11:23:52.851Z,-8
2019-02-25T11:24:51.768Z,-7.5
2019-02-25T11:25:51.461Z,-7.7
2019-02-25T11:26:50.850Z,-7
2019-02-25T11:27:50.850Z,-7.7
2019-02-25T11:28:50.898Z,-8.4
2019-02-25T11:29:50.954Z,-7.9
2019-02-25T11:30:51.885Z,-7.6
2019-02-25T11:31:51.516Z,-7.8
2019-02-25T11:32:52.924Z,-7.6
2019-02-25T11:33:50.989Z,-7.7
2019-02-25T11:34:51.035Z,-7.1
2019-02-25T11:35:51.079Z,-6.8
2019-02-25T11:36:53.059Z,-7.2
2019-02-25T11:37:51.932Z,-7
2019-02-25T11:38:51.090Z,-7.2
2019-02-25T11:39:52.577Z,-7.2
2019-02-25T11:40:51.120Z,-6.8
2019-02-25T11:41:51.144Z,-7
2019-02-25T11:42:51.150Z,-7.5
2019-02-25T11:43:52.778Z,-6.8
2019-02-25T11:44:51.886Z,-7.3
2019-02-25T11:45:51.159Z,-7.1
2019-02-25T11:46:51.180Z,-6.5
2019-02-25T11:47:51.205Z,-7
2019-02-25T11:48:51.178Z,-7.7
2019-02-25T11:49:51.214Z,-6.7
2019-02-25T11:50:51.207Z,-7.9
2019-02-25T11:51:51.222Z,-6.8
2019-02-25T11:52:51.210Z,-7.3
2019-02-25T11:53:51.213Z,-7.2
2019-02-25T11:54:51.199Z,-7.2
2019-02-25T11:56:23.368Z,-7.3
2019-02-25T11:56:51.362Z,-7.3
2019-02-25T11:57:51.392Z,-6.6
2019-02-25T11:58:51.377Z,-7
2019-02-25T11:59:51.455Z,-6.9
2019-02-25T12:00:51.465Z,-6.8
2019-02-25T12:01:51.560Z,-6.8
2019-02-25T12:02:51.588Z,-6.3
2019-02-25T12:03:51.654Z,-6.3
2019-02-25T12:04:51.692Z,-6.4
2019-02-25T12:05:52.547Z,-6.6
2019-02-25T12:06:51.835Z,-6.4
2019-02-25T12:07:51.855Z,-6.3
2019-02-25T12:08:51.851Z,-6.7
2019-02-25T12:09:51.912Z,-6.9
2019-02-25T12:10:51.968Z,-6.4
2019-02-25T12:11:52.021Z,-7
2019-02-25T12:12:52.103Z,-6.6
2019-02-25T12:13:52.165Z,-6.5
2019-02-25T12:14:52.187Z,-6.1
2019-02-25T12:15:52.222Z,-5.3
2019-02-25T12:16:52.297Z,-6.5
2019-02-25T12:17:52.338Z,-5.9
2019-02-25T12:18:52.362Z,-6.7
2019-02-25T12:19:52.428Z,-6.9
2019-02-25T12:20:52.432Z,-7.1
2019-02-25T12:21:52.471Z,-6.4
2019-02-25T12:22:52.510Z,-6.8
2019-02-25T12:23:52.537Z,-6.3
2019-02-25T12:24:52.569Z,-6.7
2019-02-25T12:25:52.675Z,-7
2019-02-25T12:26:52.657Z,-6.3
2019-02-25T12:27:52.741Z,-6.2
2019-02-25T12:28:52.859Z,-7
2019-02-25T12:29:52.840Z,-6.6
2019-02-25T12:30:52.861Z,-6.8
2019-02-25T12:31:52.903Z,-6.7
2019-02-25T12:32:52.994Z,-6.7
2019-02-25T12:33:53.001Z,-6.6
2019-02-25T12:34:53.044Z,-6.3
2019-02-25T12:35:53.070Z,-6
2019-02-25T12:36:53.124Z,-5.5
2019-02-25T12:37:53.174Z,-6.1
2019-02-25T12:38:53.227Z,-6.4
2019-02-25T12:39:53.215Z,-6.7
2019-02-25T12:40:53.256Z,-6.4
2019-02-25T12:41:53.348Z,-6.3
2019-02-25T12:42:53.366Z,-6.5
2019-02-25T12:43:53.400Z,-6.1
2019-02-25T12:44:53.403Z,-5.8
2019-02-25T12:45:53.437Z,-6
2019-02-25T12:46:53.459Z,-6
2019-02-25T12:47:53.534Z,-5.9
2019-02-25T12:48:53.598Z,-5.8
2019-02-25T12:49:53.572Z,-5.7
2019-02-25T12:50:53.633Z,-6.1
2019-02-25T12:51:53.645Z,-5.4
2019-02-25T12:52:53.733Z,-6
2019-02-25T12:53:53.710Z,-4.7
2019-02-25T12:54:53.754Z,-6.1
2019-02-25T12:55:53.797Z,-6
2019-02-25T12:56:53.799Z,-5.9
2019-02-25T12:57:53.869Z,-5.7
2019-02-25T12:58:53.836Z,-6
2019-02-25T12:59:53.879Z,-5.9
2019-02-25T13:00:53.921Z,-5.7
2019-02-25T13:01:53.921Z,-6.1
2019-02-25T13:02:53.975Z,-5.7
2019-02-25T13:03:53.958Z,-5.7
2019-02-25T13:04:54.001Z,-6
2019-02-25T13:05:54.027Z,-6.3
2019-02-25T13:06:54.074Z,-5.8
2019-02-25T13:07:54.088Z,-5.7
2019-02-25T13:08:54.095Z,-5.9
2019-02-25T13:09:54.101Z,-6.1
2019-02-25T13:10:54.121Z,-6.4
2019-02-25T13:11:54.144Z,-6.2
2019-02-25T13:12:54.151Z,-6.4
2019-02-25T13:13:54.638Z,-6.5
2019-02-25T13:14:54.229Z,-6.1
2019-02-25T13:15:54.195Z,-6.3
2019-02-25T13:16:54.215Z,-6.9
2019-02-25T13:17:54.274Z,-6.2
2019-02-25T13:18:54.254Z,-6.3
2019-02-25T13:19:54.266Z,-6.5
2019-02-25T13:20:54.289Z,-7.6
2019-02-25T13:21:54.301Z,-7.2
2019-02-25T13:22:54.306Z,-7.5
2019-02-25T13:23:54.738Z,-7.1